Contact Us:
Email: info@sawbill.com
Phone: (218)663-7150
Fax: (218)663-7980
Mail: 4620 Sawbill Trail
Box 2129
Tofte, MN 55615


Powered by
Movable Type 3.15
 
Sawbill Weather History Archives: January 2007
Current Sawbill Weather History | « December 2006 | February 2007 »


Date

High
Temperature

Low
Temperature

Barometric
Pressure

Relative
Humidity 7AM

9 AM
Temperature

Moisture

Snow

1/31/07 21 -1 29.76 58% -1 Trace Trace
1/30/07 23 -5 29.02 58% 2 0
1/29/07 15 -6 29.76 57% -5 Trace Trace
1/28/07 20 -10 29.96 60% 3 0
1/27/07 14 -11 30.12 54% -10 .02" .5"
1/26/07 20 7 29.97 62% 7 Trace Trace
1/25/07 21 -14 29.75 76% 21 0
1/24/07 19 -14 29.99 50% -14 Trace Trace
1/23/07 23 -10 30.25 52% -8 0
1/22/07 30 17 30.14 65% 17 .02" .5"
1/21/07 30 18 30.13 71% 18 0
1/20/07 22 -4 30.21 58% 20 0
1/19/07 15 -8 30.21 53% -4 0
1/18/07 25 7 30.23 61% 7 .02" .5"
1/17/07 29 3 30.06 71% 3 0
1/16/07 14 -7 29.34 60% 6 0
1/15/07 10 -9 29.61 52% -7 0
1/14/07 15 -2 29.47 49% -1 0
1/13/07 22 -11 29.55 59% -11 0
1/12/07 32 -18 29.61 49% -18 0
1/11/07 32 0 29.40 59% 1 .03" 1"
1/10/07 32 20 28.15 72% 21 Trace Trace
1/9/07 29 20 27.94 74% 28 Trace Trace
1/8/07 35 4 29.91 62% 4 .02" .5"
1/7/07 33 15 29.59 72% 15 .2" 2"
1/6/07 31 24 29.69 77% 30 0
1/5/07 36 25 29.70 72% 25 0
1/4/07 40 31 29.55 81% 32 Trace
1/3/07 36 25 29.66 81% 31 0
1/2/07 34 20 29.66 77% 25 0
1/1/07 33 19 29.99 69% 20 0
 


Home I Trip Planning I Rentals and Outfitting I Reservations I Campgrounds I Sawbill Store I Sawbill News I Contact

© 1997 - 2017, Sawbill Canoe Outfitters, Inc. I Privacy Policy